METAR Data
IDs: Format: Raw Decoded Include TAF

Data at: 0559 UTC 24 Sep 2018

KGZH 240553Z AUTO 00000KT 10SM CLR 23/22 A3000 RMK AO2 SLP154 60000 T02280217 10244 20222 403280206 58003
KGZH 240453Z AUTO 00000KT 10SM CLR 23/22 A3001 RMK AO2 SLP158 T02280217
KGZH 240353Z AUTO 00000KT 10SM CLR 23/22 A3001 RMK AO2 SLP157 T02330217
KGZH 240253Z AUTO 00000KT 10SM CLR 23/22 A3001 RMK AO2 SLP157 60000 T02330217 51010
KGZH 240153Z AUTO 09003KT 10SM FEW070 24/22 A3000 RMK AO2 SLP155 T02390222
KGZH 240053Z AUTO 00000KT 10SM SCT070 BKN095 BKN110 24/23 A2999 RMK AO2 RAB16E29 SLP153 P0000 T02440228
KGZH 232353Z AUTO 11004KT 10SM BKN065 OVC080 24/23 A2998 RMK AO2 RAE2259 SLP148 P0000 60020 T02440228 10328 20239 51015
KGZH 232253Z AUTO 14004KT 10SM -RA FEW055 SCT090 BKN110 24/23 A2996 RMK AO2 SLP142 P0018 T02440228
KGZH 232229Z AUTO 16005KT 4SM -RA BR SCT041 BKN065 OVC085 24/23 A2996 RMK AO2 P0017 T02390228
KGZH 232218Z AUTO 16012KT 1 3/4SM +RA BR FEW028 BKN042 OVC090 24/22 A2996 RMK AO2 P0013 T02390222
KGZH 232153Z AUTO 13012G19KT 7SM -RA FEW030 BKN060 OVC085 26/22 A2996 RMK AO2 LTG DSNT S RAB29 SLP143 P0002 T02610222
KGZH 232053Z AUTO 05003KT 10SM SCT100 32/21 A2993 RMK AO2 LTG DSNT S SLP132 T03220211 56024
KGZH 231953Z AUTO 14005KT 10SM FEW065 OVC085 31/21 A2994 RMK AO2 SLP136 T03110211
KGZH 231853Z AUTO 13006KT 10SM SCT080 31/21 A2998 RMK AO2 SLP146 T03110206
KGZH 231753Z AUTO 10005KT 10SM SCT038 32/21 A3000 RMK AO2 SLP156 T03220211 10322 20206 58013
KGZH 231653Z AUTO VRB06KT 10SM CLR 31/22 A3003 RMK AO2 SLP164 T03110217
KGZH 231553Z AUTO 10SM CLR 30/22 A3004 RMK AO2 SLP169 T03000222
KGZH 231453Z AUTO 11005KT 10SM CLR 29/22 A3004 RMK AO2 SLP169 T02890222 51010
KGZH 231353Z AUTO 11004KT 10SM CLR 26/22 A3004 RMK AO2 SLP168 T02610222
KGZH 231253Z AUTO 00000KT 9SM CLR 23/21 A3003 RMK AO2 SLP165 T02330211
KGZH 231153Z AUTO 00000KT 4SM BR CLR 21/19 A3001 RMK AO2 SLP159 T02060194 10228 20206 53009
KGZH 231053Z AUTO 00000KT 5SM BR CLR 21/20 A2998 RMK AO2 SLP150 T02110200
KGZH 231004Z AUTO 00000KT 5SM BR CLR 21/20 A2998 RMK AO2 T02110200
KGZH 230953Z AUTO 00000KT 2SM BR CLR 21/20 A2998 RMK AO2 SLP149 T02110200
KGZH 230937Z AUTO 00000KT 1 3/4SM BR CLR 22/20 A2998 RMK AO2 T02170200
KGZH 230853Z AUTO 00000KT 5SM BR CLR 22/21 A2999 RMK AO2 SLP150 T02170206 56008
KGZH 230753Z AUTO 00000KT 4SM BR CLR 22/21 A2999 RMK AO2 SLP151 T02170206
KGZH 230653Z AUTO 00000KT 9SM CLR 23/21 A2999 RMK AO2 SLP152 T02280211
KGZH 230645Z AUTO 09003KT 7SM CLR 22/21 A3000 RMK AO2 T02220211
KGZH 230637Z AUTO 00000KT 2 1/2SM BR CLR 22/21 A3000 RMK AO2 T02220206
KGZH 230553Z AUTO 00000KT 5SM BR CLR 23/21 A3001 RMK AO2 SLP157 T02280211 10267 20228 403330217 57012
KGZH 230548Z AUTO 00000KT 3SM BR CLR 23/21 A3001 RMK AO2
KGZH 230540Z AUTO 00000KT 1 3/4SM BR CLR 23/21 A3001 RMK AO2 T02280211
KGZH 230453Z AUTO 00000KT 6SM BR CLR 23/22 A3002 RMK AO2 SLP161 T02280217
KGZH 230353Z AUTO 00000KT 4SM BR CLR 23/22 A3004 RMK AO2 SLP167 T02330222
KGZH 230253Z AUTO 00000KT 9SM FEW060 24/22 A3005 RMK AO2 SLP170 T02390222 51019
KGZH 230153Z AUTO 00000KT 10SM CLR 24/23 A3003 RMK AO2 SLP166 T02440228
KGZH 230053Z AUTO 00000KT 10SM FEW050 25/23 A3001 RMK AO2 SLP158 T02500228
KGZH 222353Z AUTO 20003KT 10SM CLR 27/22 A2999 RMK AO2 SLP152 T02670222 10333 20267 53008
KGZH 222253Z AUTO 22003KT 10SM FEW055 29/22 A2998 RMK AO2 SLP147 T02940222
KGZH 222153Z AUTO 20006KT 10SM FEW050 29/22 A2997 RMK AO2 SLP145 T02940217
KGZH 222053Z AUTO 15005KT 10SM CLR 33/21 A2996 RMK AO2 SLP142 T03280206 56027
KGZH 221953Z AUTO 17007KT 10SM CLR 33/22 A2998 RMK AO2 SLP148 T03280217
KGZH 221853Z AUTO 23003KT 10SM FEW040 30/22 A3001 RMK AO2 SLP158 T03000217